sensor_id;sensor_type;location;lat;lon;timestamp;temperature;humidity
63317;DHT22;49822;41.468;13.560;2023-08-08T19:05:34;24.50;56.50
63317;DHT22;49822;41.468;13.560;2023-08-08T19:08:02;24.50;57.00
63317;DHT22;49822;41.468;13.560;2023-08-08T19:10:28;24.60;56.50
63317;DHT22;49822;41.468;13.560;2023-08-08T19:12:54;24.50;56.90
63317;DHT22;49822;41.468;13.560;2023-08-08T19:15:22;24.10;58.00
63317;DHT22;49822;41.468;13.560;2023-08-08T19:17:48;23.70;58.50
63317;DHT22;49822;41.468;13.560;2023-08-08T19:20:14;23.70;58.50
63317;DHT22;49822;41.468;13.560;2023-08-08T19:22:40;23.60;60.60
63317;DHT22;49822;41.468;13.560;2023-08-08T19:25:07;23.50;60.00
63317;DHT22;49822;41.468;13.560;2023-08-08T19:27:33;23.50;60.30
63317;DHT22;49822;41.468;13.560;2023-08-08T19:30:00;23.50;60.00
63317;DHT22;49822;41.468;13.560;2023-08-08T19:32:26;23.40;60.40
63317;DHT22;49822;41.468;13.560;2023-08-08T19:34:52;23.40;59.20
63317;DHT22;49822;41.468;13.560;2023-08-08T19:37:19;23.40;59.40
63317;DHT22;49822;41.468;13.560;2023-08-08T19:39:45;23.50;59.20
63317;DHT22;49822;41.468;13.560;2023-08-08T19:42:12;23.50;58.90
63317;DHT22;49822;41.468;13.560;2023-08-08T19:44:38;23.60;59.60
63317;DHT22;49822;41.468;13.560;2023-08-08T19:47:05;23.70;60.30
63317;DHT22;49822;41.468;13.560;2023-08-08T19:49:32;23.80;60.70
63317;DHT22;49822;41.468;13.560;2023-08-08T19:51:59;23.70;60.80
63317;DHT22;49822;41.468;13.560;2023-08-08T19:54:28;23.70;60.80
63317;DHT22;49822;41.468;13.560;2023-08-08T19:56:55;23.60;63.10
63317;DHT22;49822;41.468;13.560;2023-08-08T19:59:21;23.60;62.80
63317;DHT22;49822;41.468;13.560;2023-08-08T20:01:48;23.50;63.60
63317;DHT22;49822;41.468;13.560;2023-08-08T20:04:14;23.20;64.10
63317;DHT22;49822;41.468;13.560;2023-08-08T20:06:40;23.10;64.10
63317;DHT22;49822;41.468;13.560;2023-08-08T20:09:06;23.10;64.30
63317;DHT22;49822;41.468;13.560;2023-08-08T20:11:33;23.10;64.30
63317;DHT22;49822;41.468;13.560;2023-08-08T20:14:01;23.00;64.80
63317;DHT22;49822;41.468;13.560;2023-08-08T20:16:27;22.90;64.60
63317;DHT22;49822;41.468;13.560;2023-08-08T20:18:53;22.90;65.90
63317;DHT22;49822;41.468;13.560;2023-08-08T20:21:19;22.90;65.60
63317;DHT22;49822;41.468;13.560;2023-08-08T20:23:46;22.80;65.50
63317;DHT22;49822;41.468;13.560;2023-08-08T20:26:12;22.80;65.60
63317;DHT22;49822;41.468;13.560;2023-08-08T20:28:38;22.80;65.80
63317;DHT22;49822;41.468;13.560;2023-08-08T20:31:06;22.80;66.30
63317;DHT22;49822;41.468;13.560;2023-08-08T20:33:32;22.50;66.60
63317;DHT22;49822;41.468;13.560;2023-08-08T20:35:58;22.30;66.20
63317;DHT22;49822;41.468;13.560;2023-08-08T20:38:24;22.20;66.80
63317;DHT22;49822;41.468;13.560;2023-08-08T20:40:50;22.10;67.20
63317;DHT22;49822;41.468;13.560;2023-08-08T20:43:17;22.10;67.00
63317;DHT22;49822;41.468;13.560;2023-08-08T20:45:43;22.00;67.80
63317;DHT22;49822;41.468;13.560;2023-08-08T20:48:10;21.60;68.60
63317;DHT22;49822;41.468;13.560;2023-08-08T20:50:36;21.40;69.10
63317;DHT22;49822;41.468;13.560;2023-08-08T20:53:02;21.30;68.30
63317;DHT22;49822;41.468;13.560;2023-08-08T20:55:30;21.40;68.60
63317;DHT22;49822;41.468;13.560;2023-08-08T20:57:56;21.40;68.50
63317;DHT22;49822;41.468;13.560;2023-08-08T21:00:23;21.30;69.60
63317;DHT22;49822;41.468;13.560;2023-08-08T21:02:49;21.50;69.80
63317;DHT22;49822;41.468;13.560;2023-08-08T21:05:16;21.30;70.50
63317;DHT22;49822;41.468;13.560;2023-08-08T21:07:43;21.30;70.10
63317;DHT22;49822;41.468;13.560;2023-08-08T21:10:10;21.30;70.10
63317;DHT22;49822;41.468;13.560;2023-08-08T21:12:36;21.40;70.70
63317;DHT22;49822;41.468;13.560;2023-08-08T21:15:04;21.50;70.40
63317;DHT22;49822;41.468;13.560;2023-08-08T21:17:30;21.40;71.40
63317;DHT22;49822;41.468;13.560;2023-08-08T21:19:57;21.30;71.80
63317;DHT22;49822;41.468;13.560;2023-08-08T21:22:26;21.30;71.80
63317;DHT22;49822;41.468;13.560;2023-08-08T21:24:52;21.40;71.60
63317;DHT22;49822;41.468;13.560;2023-08-08T21:27:18;21.20;72.00
63317;DHT22;49822;41.468;13.560;2023-08-08T21:29:45;21.20;71.80
63317;DHT22;49822;41.468;13.560;2023-08-08T21:32:11;21.20;71.80
63317;DHT22;49822;41.468;13.560;2023-08-08T21:34:37;21.20;72.30
63317;DHT22;49822;41.468;13.560;2023-08-08T21:37:03;21.10;72.20
63317;DHT22;49822;41.468;13.560;2023-08-08T21:39:30;20.80;73.10
63317;DHT22;49822;41.468;13.560;2023-08-08T21:41:57;20.30;75.70
63317;DHT22;49822;41.468;13.560;2023-08-08T21:44:25;20.20;74.50
63317;DHT22;49822;41.468;13.560;2023-08-08T21:46:52;20.40;73.30
63317;DHT22;49822;41.468;13.560;2023-08-08T21:49:19;20.50;75.00
63317;DHT22;49822;41.468;13.560;2023-08-08T21:51:45;20.50;74.10
63317;DHT22;49822;41.468;13.560;2023-08-08T21:54:12;20.60;74.10
63317;DHT22;49822;41.468;13.560;2023-08-08T21:56:38;20.60;74.80
63317;DHT22;49822;41.468;13.560;2023-08-08T21:59:07;20.70;74.60
63317;DHT22;49822;41.468;13.560;2023-08-08T22:01:34;20.70;75.00
63317;DHT22;49822;41.468;13.560;2023-08-08T22:04:00;20.60;75.40
63317;DHT22;49822;41.468;13.560;2023-08-08T22:06:26;20.60;74.60
63317;DHT22;49822;41.468;13.560;2023-08-08T22:08:52;20.80;74.40
63317;DHT22;49822;41.468;13.560;2023-08-08T22:11:18;20.60;74.40
63317;DHT22;49822;41.468;13.560;2023-08-08T22:13:45;20.40;74.60
63317;DHT22;49822;41.468;13.560;2023-08-08T22:16:11;20.40;76.00
63317;DHT22;49822;41.468;13.560;2023-08-08T22:18:37;20.40;75.90
63317;DHT22;49822;41.468;13.560;2023-08-08T22:21:03;20.30;75.70
63317;DHT22;49822;41.468;13.560;2023-08-08T22:23:29;20.40;76.20
63317;DHT22;49822;41.468;13.560;2023-08-08T22:25:56;20.50;75.80
63317;DHT22;49822;41.468;13.560;2023-08-08T22:28:22;20.50;75.80
63317;DHT22;49822;41.468;13.560;2023-08-08T22:30:49;20.50;76.90
63317;DHT22;49822;41.468;13.560;2023-08-08T22:33:15;20.40;76.00
63317;DHT22;49822;41.468;13.560;2023-08-08T22:35:41;20.30;77.90
63317;DHT22;49822;41.468;13.560;2023-08-08T22:38:07;20.10;78.40
63317;DHT22;49822;41.468;13.560;2023-08-08T22:40:34;20.00;78.00
63317;DHT22;49822;41.468;13.560;2023-08-08T22:43:00;20.20;77.80
63317;DHT22;49822;41.468;13.560;2023-08-08T22:45:27;20.20;77.90
63317;DHT22;49822;41.468;13.560;2023-08-08T22:47:54;20.30;77.50
63317;DHT22;49822;41.468;13.560;2023-08-08T22:50:20;20.30;77.60
63317;DHT22;49822;41.468;13.560;2023-08-08T22:52:47;20.20;78.50
63317;DHT22;49822;41.468;13.560;2023-08-08T22:55:13;20.20;78.30
63317;DHT22;49822;41.468;13.560;2023-08-08T22:57:40;20.10;77.80
63317;DHT22;49822;41.468;13.560;2023-08-08T23:00:07;20.00;78.30
63317;DHT22;49822;41.468;13.560;2023-08-08T23:02:34;20.10;78.20
63317;DHT22;49822;41.468;13.560;2023-08-08T23:05:00;20.10;78.90
63317;DHT22;49822;41.468;13.560;2023-08-08T23:07:27;20.10;78.60
63317;DHT22;49822;41.468;13.560;2023-08-08T23:09:53;20.10;79.80
63317;DHT22;49822;41.468;13.560;2023-08-08T23:12:19;19.90;79.30
63317;DHT22;49822;41.468;13.560;2023-08-08T23:14:45;19.70;80.10
63317;DHT22;49822;41.468;13.560;2023-08-08T23:17:12;19.70;80.10
63317;DHT22;49822;41.468;13.560;2023-08-08T23:19:38;19.70;79.90
63317;DHT22;49822;41.468;13.560;2023-08-08T23:22:04;19.80;80.10
63317;DHT22;49822;41.468;13.560;2023-08-08T23:24:31;19.60;80.90
63317;DHT22;49822;41.468;13.560;2023-08-08T23:26:58;19.20;82.50
63317;DHT22;49822;41.468;13.560;2023-08-08T23:29:24;19.10;82.00
63317;DHT22;49822;41.468;13.560;2023-08-08T23:31:50;19.30;81.20
63317;DHT22;49822;41.468;13.560;2023-08-08T23:34:16;19.40;81.00
63317;DHT22;49822;41.468;13.560;2023-08-08T23:36:43;19.60;80.60
63317;DHT22;49822;41.468;13.560;2023-08-08T23:39:10;19.80;80.30
63317;DHT22;49822;41.468;13.560;2023-08-08T23:41:37;19.80;80.30
63317;DHT22;49822;41.468;13.560;2023-08-08T23:44:03;20.00;80.00
63317;DHT22;49822;41.468;13.560;2023-08-08T23:46:30;19.90;79.70
63317;DHT22;49822;41.468;13.560;2023-08-08T23:48:56;19.90;79.70
63317;DHT22;49822;41.468;13.560;2023-08-08T23:51:22;20.00;79.30
63317;DHT22;49822;41.468;13.560;2023-08-08T23:53:48;19.90;79.40
63317;DHT22;49822;41.468;13.560;2023-08-08T23:56:15;19.90;80.40
63317;DHT22;49822;41.468;13.560;2023-08-08T23:58:41;19.60;80.70
